createdAt,value
2023-03-16T00:00:22.665Z,4.33
2023-03-16T00:02:53.607Z,4.31
2023-03-16T00:05:21.986Z,4.29
2023-03-16T00:07:50.547Z,4.27
2023-03-16T00:10:27.326Z,4.29
2023-03-16T00:12:56.538Z,4.27
2023-03-16T00:15:24.955Z,4.29
2023-03-16T00:17:53.262Z,4.28
2023-03-16T00:20:22.854Z,4.28
2023-03-16T00:22:51.210Z,4.31
2023-03-16T00:25:20.935Z,4.36
2023-03-16T00:27:49.455Z,4.38
2023-03-16T00:30:18.228Z,4.40
2023-03-16T00:32:46.601Z,4.39
2023-03-16T00:35:14.988Z,4.38
2023-03-16T00:37:49.336Z,4.41
2023-03-16T00:40:18.553Z,4.40
2023-03-16T00:42:48.234Z,4.43
2023-03-16T00:45:16.715Z,4.44
2023-03-16T00:47:45.195Z,4.44
2023-03-16T00:50:13.537Z,4.39
2023-03-16T00:52:42.204Z,4.38
2023-03-16T00:55:11.196Z,4.35
2023-03-16T00:57:39.567Z,4.30
2023-03-16T01:00:13.076Z,4.31
2023-03-16T01:02:42.143Z,4.37
2023-03-16T01:05:11.102Z,4.37
2023-03-16T01:07:40.021Z,4.37
2023-03-16T01:10:10.420Z,4.38
2023-03-16T01:12:47.239Z,4.40
2023-03-16T01:15:17.074Z,4.40
2023-03-16T01:17:45.385Z,4.38
2023-03-16T01:20:19.328Z,4.42
2023-03-16T01:22:47.730Z,4.46
2023-03-16T01:25:16.194Z,4.47
2023-03-16T01:27:44.598Z,4.46
2023-03-16T01:30:13.688Z,4.49
2023-03-16T01:32:43.632Z,4.49
2023-03-16T01:35:12.210Z,4.47
2023-03-16T01:37:41.392Z,4.46
2023-03-16T01:40:12.401Z,4.47
2023-03-16T01:42:48.976Z,4.51
2023-03-16T01:46:10.681Z,4.50
2023-03-16T01:48:44.839Z,4.47
2023-03-16T01:51:17.309Z,4.43
2023-03-16T01:53:47.777Z,4.39
2023-03-16T01:56:23.597Z,4.33
2023-03-16T01:58:58.634Z,4.31
2023-03-16T02:01:28.451Z,4.27
2023-03-16T02:04:05.758Z,4.25
2023-03-16T02:06:36.841Z,4.20
2023-03-16T02:09:06.775Z,4.18
2023-03-16T02:11:36.547Z,4.19
2023-03-16T02:14:10.498Z,4.16
2023-03-16T02:16:39.714Z,4.10
2023-03-16T02:19:13.447Z,4.07
2023-03-16T02:21:54.393Z,4.04
2023-03-16T02:24:23.284Z,4.00
2023-03-16T02:26:56.345Z,3.99
2023-03-16T02:29:37.807Z,4.03
2023-03-16T02:32:07.848Z,4.04
2023-03-16T02:34:36.539Z,4.00
2023-03-16T02:37:06.504Z,4.06
2023-03-16T02:39:35.498Z,4.09
2023-03-16T02:42:04.007Z,4.10
2023-03-16T02:44:35.007Z,4.10
2023-03-16T02:47:07.229Z,4.11
2023-03-16T02:49:39.711Z,4.11
2023-03-16T02:52:09.702Z,4.09
2023-03-16T02:54:38.267Z,4.08
2023-03-16T02:57:06.724Z,4.07
2023-03-16T02:59:37.696Z,4.04
2023-03-16T03:02:06.152Z,4.04
2023-03-16T03:04:35.854Z,4.03
2023-03-16T03:07:05.482Z,4.03
2023-03-16T03:09:34.094Z,4.03
2023-03-16T03:12:02.510Z,4.03
2023-03-16T03:14:30.876Z,4.04
2023-03-16T03:17:04.227Z,4.01
2023-03-16T03:19:33.786Z,3.99
2023-03-16T03:22:06.344Z,3.98
2023-03-16T03:24:35.672Z,3.94
2023-03-16T03:27:05.788Z,3.92
2023-03-16T03:29:35.448Z,3.91
2023-03-16T03:32:04.923Z,3.88
2023-03-16T03:34:33.994Z,3.88
2023-03-16T03:37:03.915Z,3.88
2023-03-16T03:39:32.400Z,3.85
2023-03-16T03:42:03.055Z,3.86
2023-03-16T03:44:34.627Z,3.84
2023-03-16T03:47:04.074Z,3.78
2023-03-16T03:49:32.746Z,3.65
2023-03-16T03:52:04.725Z,3.58
2023-03-16T03:54:34.647Z,3.57
2023-03-16T03:57:03.208Z,3.57
2023-03-16T03:59:32.807Z,3.55
2023-03-16T04:02:01.270Z,3.53
2023-03-16T04:04:29.712Z,3.50
2023-03-16T04:06:58.090Z,3.49
2023-03-16T04:09:26.490Z,3.45
2023-03-16T04:11:57.545Z,3.39
2023-03-16T04:14:26.034Z,3.37
2023-03-16T04:16:55.024Z,3.38
2023-03-16T04:19:24.204Z,3.40
2023-03-16T04:21:52.946Z,3.38
2023-03-16T04:24:22.462Z,3.34
2023-03-16T04:26:51.001Z,3.35
2023-03-16T04:29:21.044Z,3.40
2023-03-16T04:31:49.485Z,3.40
2023-03-16T04:34:17.791Z,3.34
2023-03-16T04:36:46.120Z,3.31
2023-03-16T04:39:14.672Z,3.32
2023-03-16T04:41:43.056Z,3.26
2023-03-16T04:44:11.434Z,3.23
2023-03-16T04:46:41.369Z,3.20
2023-03-16T04:49:10.220Z,3.19
2023-03-16T04:51:40.652Z,3.15
2023-03-16T04:54:09.360Z,3.09
2023-03-16T04:56:41.399Z,3.07
2023-03-16T04:59:10.729Z,3.08
2023-03-16T05:01:39.283Z,3.09
2023-03-16T05:04:11.575Z,3.06
2023-03-16T05:06:41.600Z,3.05
2023-03-16T05:09:10.181Z,3.04
2023-03-16T05:11:39.036Z,3.05
2023-03-16T05:14:07.517Z,3.01
2023-03-16T05:16:35.892Z,2.99
2023-03-16T05:19:04.378Z,2.96
2023-03-16T05:21:34.325Z,2.98
2023-03-16T05:24:02.741Z,2.98
2023-03-16T05:26:31.480Z,2.98
2023-03-16T05:28:59.800Z,2.92
2023-03-16T05:31:32.589Z,2.94
2023-03-16T05:34:02.372Z,2.96
2023-03-16T05:36:30.922Z,3.01
2023-03-16T05:39:01.086Z,3.04
2023-03-16T05:41:30.169Z,3.07
2023-03-16T05:43:58.684Z,3.06
2023-03-16T05:46:27.081Z,3.08
2023-03-16T05:48:55.460Z,3.11
2023-03-16T05:51:26.492Z,3.15
2023-03-16T05:53:56.711Z,3.17
2023-03-16T05:56:28.089Z,3.19
2023-03-16T05:58:57.072Z,3.20
2023-03-16T06:01:25.461Z,3.23
2023-03-16T06:03:54.936Z,3.24
2023-03-16T06:06:23.753Z,3.25
2023-03-16T06:08:52.516Z,3.28
2023-03-16T06:11:21.100Z,3.26
2023-03-16T06:13:50.977Z,3.26
2023-03-16T06:16:19.369Z,3.25
2023-03-16T06:18:47.768Z,3.26
2023-03-16T06:21:16.155Z,3.26
2023-03-16T06:23:44.485Z,3.26
2023-03-16T06:26:13.362Z,3.26
2023-03-16T06:28:42.587Z,3.27
2023-03-16T06:31:12.437Z,3.27
2023-03-16T06:33:41.532Z,3.33
2023-03-16T06:36:10.123Z,3.36
2023-03-16T06:38:38.535Z,3.41
2023-03-16T06:41:07.038Z,3.46
2023-03-16T06:43:35.532Z,3.43
2023-03-16T06:46:04.421Z,3.44
2023-03-16T06:48:34.286Z,3.43
2023-03-16T06:51:02.783Z,3.44
2023-03-16T06:53:31.173Z,3.47
2023-03-16T06:55:59.577Z,3.49
2023-03-16T06:58:28.286Z,3.49
2023-03-16T07:00:56.699Z,3.52
2023-03-16T07:03:25.121Z,3.55
2023-03-16T07:05:55.178Z,3.61
2023-03-16T07:08:23.582Z,3.67
2023-03-16T07:10:52.259Z,3.68
2023-03-16T07:13:20.648Z,3.70
2023-03-16T07:15:52.206Z,3.71
2023-03-16T07:18:21.169Z,3.74
2023-03-16T07:20:49.583Z,3.78
2023-03-16T07:23:19.620Z,3.84
2023-03-16T07:25:48.054Z,3.92
2023-03-16T07:28:16.443Z,4.01
2023-03-16T07:31:02.563Z,4.09
2023-03-16T07:33:33.294Z,4.17
2023-03-16T07:36:04.241Z,4.21
2023-03-16T07:38:34.731Z,4.25
2023-03-16T07:41:03.136Z,4.25
2023-03-16T07:43:31.640Z,4.26
2023-03-16T07:46:00.141Z,4.32
2023-03-16T07:48:28.932Z,4.43
2023-03-16T07:50:57.321Z,4.52
2023-03-16T07:53:25.767Z,4.64
2023-03-16T07:55:55.614Z,4.76
2023-03-16T07:58:24.018Z,4.90
2023-03-16T08:00:52.357Z,5.06
2023-03-16T08:03:20.805Z,5.18
2023-03-16T08:05:49.218Z,5.24
2023-03-16T08:08:17.635Z,5.26
2023-03-16T08:10:49.041Z,5.31
2023-03-16T08:13:19.112Z,5.39
2023-03-16T08:15:48.792Z,5.45
2023-03-16T08:18:17.160Z,5.48
2023-03-16T08:20:45.666Z,5.47
2023-03-16T08:23:15.547Z,5.44
2023-03-16T08:25:44.657Z,5.42
2023-03-16T08:28:13.049Z,5.39
2023-03-16T08:30:48.142Z,5.37
2023-03-16T08:33:17.996Z,5.40
2023-03-16T08:35:46.670Z,5.41
2023-03-16T08:38:17.045Z,5.40
2023-03-16T08:40:48.590Z,5.42
2023-03-16T08:43:17.420Z,5.44
2023-03-16T08:45:48.477Z,5.49
2023-03-16T08:48:16.932Z,5.54
2023-03-16T08:50:46.161Z,5.63
2023-03-16T08:53:15.676Z,5.75
2023-03-16T08:55:44.181Z,5.76
2023-03-16T08:58:14.080Z,5.79
2023-03-16T09:00:43.884Z,5.70
2023-03-16T09:03:15.475Z,5.64
2023-03-16T09:05:43.894Z,5.61
2023-03-16T09:08:12.699Z,5.56
2023-03-16T09:10:41.735Z,5.46
2023-03-16T09:13:10.270Z,5.30
2023-03-16T09:15:38.998Z,5.28
2023-03-16T09:18:07.523Z,5.34
2023-03-16T09:20:37.919Z,5.40
2023-03-16T09:23:06.443Z,5.48
2023-03-16T09:25:34.952Z,5.63
2023-03-16T09:28:03.355Z,5.67
2023-03-16T09:30:32.469Z,5.88
2023-03-16T09:33:01.329Z,6.16
2023-03-16T09:35:30.346Z,6.42
2023-03-16T09:38:07.344Z,6.61
2023-03-16T09:40:38.345Z,6.79
2023-03-16T09:43:29.165Z,6.89
2023-03-16T09:46:05.530Z,6.88
2023-03-16T09:48:36.862Z,6.84
2023-03-16T09:51:08.813Z,6.99
2023-03-16T09:53:40.121Z,7.18
2023-03-16T09:56:13.643Z,7.31
2023-03-16T09:58:42.139Z,7.43
2023-03-16T10:01:19.042Z,7.50
2023-03-16T10:04:03.420Z,7.56
2023-03-16T10:06:33.153Z,7.69
2023-03-16T10:09:28.991Z,7.82
2023-03-16T10:11:59.565Z,7.96
2023-03-16T10:14:34.609Z,8.01
2023-03-16T10:17:08.242Z,8.16
2023-03-16T10:19:42.807Z,8.29
2023-03-16T10:22:20.546Z,8.41
2023-03-16T10:25:02.425Z,8.45
2023-03-16T10:27:32.315Z,8.54
2023-03-16T10:30:02.964Z,8.68
2023-03-16T10:32:34.655Z,8.78
2023-03-16T10:35:08.239Z,8.88
2023-03-16T10:37:37.481Z,9.02
2023-03-16T10:40:12.969Z,9.11
2023-03-16T10:42:41.632Z,9.15
2023-03-16T10:45:24.390Z,9.29
2023-03-16T10:47:52.769Z,9.40
2023-03-16T10:50:25.760Z,9.50
2023-03-16T10:52:58.240Z,9.58
2023-03-16T10:55:32.675Z,9.70
2023-03-16T10:58:02.069Z,9.64
2023-03-16T11:00:36.261Z,9.62
2023-03-16T11:03:23.179Z,9.65
2023-03-16T11:05:58.742Z,9.74
2023-03-16T11:08:29.208Z,9.85
2023-03-16T11:11:01.148Z,9.99
2023-03-16T11:13:35.333Z,10.13
2023-03-16T11:16:13.091Z,10.19
2023-03-16T11:18:46.240Z,10.19
2023-03-16T11:21:19.071Z,10.21
2023-03-16T11:23:52.183Z,10.31
2023-03-16T11:26:28.158Z,10.40
2023-03-16T11:29:08.886Z,10.48
2023-03-16T11:31:43.253Z,10.57
2023-03-16T11:34:17.878Z,10.66
2023-03-16T11:36:53.495Z,10.73
2023-03-16T11:39:33.007Z,10.82
2023-03-16T11:42:20.703Z,10.88
2023-03-16T11:44:55.501Z,10.99
2023-03-16T11:47:36.888Z,11.07
2023-03-16T11:50:16.343Z,11.12
2023-03-16T11:52:57.336Z,11.20
2023-03-16T11:55:39.733Z,11.29
2023-03-16T11:58:29.430Z,11.34
2023-03-16T12:01:08.621Z,11.38
2023-03-16T12:03:47.707Z,11.47
2023-03-16T12:06:29.786Z,11.53
2023-03-16T12:09:13.484Z,11.59
2023-03-16T12:11:48.144Z,11.61
2023-03-16T12:14:24.503Z,11.62
2023-03-16T12:17:01.076Z,11.67
2023-03-16T12:19:42.261Z,11.75
2023-03-16T12:22:18.770Z,11.87
2023-03-16T12:24:48.149Z,12.01
2023-03-16T12:27:20.267Z,12.09
2023-03-16T12:30:03.869Z,12.12
2023-03-16T12:32:43.111Z,12.21
2023-03-16T12:35:29.234Z,12.33
2023-03-16T12:38:12.342Z,12.42
2023-03-16T12:40:49.152Z,12.47
2023-03-16T12:43:33.029Z,12.47
2023-03-16T12:46:09.933Z,12.49
2023-03-16T12:48:41.709Z,12.52
2023-03-16T12:51:10.896Z,12.57
2023-03-16T12:53:45.121Z,12.59
2023-03-16T12:56:16.415Z,12.67
2023-03-16T12:58:48.552Z,12.73
2023-03-16T13:01:21.859Z,12.72
2023-03-16T13:03:59.607Z,12.77
2023-03-16T13:06:36.292Z,12.83
2023-03-16T13:09:07.385Z,12.92
2023-03-16T13:11:47.504Z,12.95
2023-03-16T13:14:18.689Z,12.99
2023-03-16T13:16:53.752Z,13.03
2023-03-16T13:19:27.704Z,13.05
2023-03-16T13:22:04.911Z,13.10
2023-03-16T13:24:50.924Z,13.13
2023-03-16T13:27:24.214Z,13.24
2023-03-16T13:29:58.210Z,13.27
2023-03-16T13:32:33.332Z,13.20
2023-03-16T13:35:03.643Z,13.22
2023-03-16T13:37:35.607Z,13.14
2023-03-16T13:40:05.419Z,13.15
2023-03-16T13:42:34.941Z,13.13
2023-03-16T13:45:15.240Z,13.16
2023-03-16T13:47:46.047Z,13.26
2023-03-16T13:50:16.028Z,13.28
2023-03-16T13:52:51.608Z,13.30
2023-03-16T13:55:27.285Z,13.38
2023-03-16T13:57:55.781Z,13.45
2023-03-16T14:00:26.410Z,13.45
2023-03-16T14:02:58.926Z,13.45
2023-03-16T14:05:30.329Z,13.38
2023-03-16T14:08:01.122Z,13.40
2023-03-16T14:10:33.375Z,13.43
2023-03-16T14:13:25.874Z,13.54
2023-03-16T14:15:55.514Z,13.57
2023-03-16T14:18:34.487Z,13.63
2023-03-16T14:21:10.066Z,13.68
2023-03-16T14:23:41.671Z,13.71
2023-03-16T14:26:14.044Z,13.75
2023-03-16T14:28:54.582Z,13.79
2023-03-16T14:31:23.057Z,13.81
2023-03-16T14:34:02.077Z,13.77
2023-03-16T14:36:37.941Z,13.76
2023-03-16T14:39:14.531Z,13.76
2023-03-16T14:41:43.517Z,13.76
2023-03-16T14:44:21.399Z,13.74
2023-03-16T14:46:50.669Z,13.69
2023-03-16T14:49:25.560Z,13.66
2023-03-16T14:51:56.689Z,13.67
2023-03-16T14:54:26.112Z,13.65
2023-03-16T14:56:56.083Z,13.68
2023-03-16T14:59:25.744Z,13.66
2023-03-16T15:01:54.750Z,13.57
2023-03-16T15:04:29.593Z,13.47
2023-03-16T15:06:58.661Z,13.44
2023-03-16T15:09:37.165Z,13.44
2023-03-16T15:12:11.993Z,13.43
2023-03-16T15:14:58.018Z,13.49
2023-03-16T15:17:27.069Z,13.47
2023-03-16T15:19:57.087Z,13.47
2023-03-16T15:22:31.666Z,13.47
2023-03-16T15:25:04.098Z,13.47
2023-03-16T15:27:37.369Z,13.48
2023-03-16T15:30:16.134Z,13.42
2023-03-16T15:32:44.624Z,13.33
2023-03-16T15:35:14.617Z,13.28
2023-03-16T15:37:43.202Z,13.23
2023-03-16T15:40:21.082Z,13.18
2023-03-16T15:42:49.912Z,13.14
2023-03-16T15:45:21.482Z,13.07
2023-03-16T15:47:51.021Z,13.05
2023-03-16T15:50:24.730Z,13.01
2023-03-16T15:52:58.614Z,12.93
2023-03-16T15:55:34.463Z,12.84
2023-03-16T15:58:03.702Z,12.78
2023-03-16T16:00:34.809Z,12.75
2023-03-16T16:03:04.728Z,12.71
2023-03-16T16:05:34.990Z,12.64
2023-03-16T16:08:03.619Z,12.59
2023-03-16T16:10:32.496Z,12.53
2023-03-16T16:13:01.985Z,12.46
2023-03-16T16:15:34.004Z,12.35
2023-03-16T16:18:20.863Z,12.27
2023-03-16T16:20:51.602Z,12.17
2023-03-16T16:23:20.089Z,12.07
2023-03-16T16:25:49.652Z,11.92
2023-03-16T16:28:22.068Z,11.80
2023-03-16T16:30:51.292Z,11.69
2023-03-16T16:33:25.104Z,11.58
2023-03-16T16:35:57.467Z,11.49
2023-03-16T16:38:26.614Z,11.40
2023-03-16T16:40:58.459Z,11.33
2023-03-16T16:43:33.380Z,11.23
2023-03-16T16:46:04.310Z,11.16
2023-03-16T16:48:35.061Z,11.08
2023-03-16T16:51:07.063Z,11.01
2023-03-16T16:53:35.557Z,10.96
2023-03-16T16:56:04.090Z,10.90
2023-03-16T16:58:33.183Z,10.83
2023-03-16T17:01:02.657Z,10.76
2023-03-16T17:03:31.445Z,10.70
2023-03-16T17:06:00.179Z,10.64
2023-03-16T17:08:29.973Z,10.58
2023-03-16T17:10:58.656Z,10.53
2023-03-16T17:13:30.751Z,10.47
2023-03-16T17:16:00.237Z,10.43
2023-03-16T17:18:28.673Z,10.36
2023-03-16T17:20:57.098Z,10.30
2023-03-16T17:23:31.231Z,10.22
2023-03-16T17:26:03.621Z,10.16
2023-03-16T17:28:38.715Z,10.09
2023-03-16T17:31:07.259Z,10.04
2023-03-16T17:33:35.730Z,9.98
2023-03-16T17:36:04.570Z,9.92
2023-03-16T17:38:35.133Z,9.86
2023-03-16T17:41:04.891Z,9.78
2023-03-16T17:43:33.657Z,9.72
2023-03-16T17:46:05.255Z,9.67
2023-03-16T17:48:33.701Z,9.59
2023-03-16T17:51:02.096Z,9.52
2023-03-16T17:53:31.836Z,9.47
2023-03-16T17:56:01.759Z,9.41
2023-03-16T17:58:31.587Z,9.35
2023-03-16T18:01:00.082Z,9.30
2023-03-16T18:03:30.720Z,9.26
2023-03-16T18:05:59.574Z,9.21
2023-03-16T18:08:30.510Z,9.16
2023-03-16T18:11:02.507Z,9.11
2023-03-16T18:13:34.681Z,9.05
2023-03-16T18:16:04.985Z,9.01
2023-03-16T18:18:36.637Z,8.98
2023-03-16T18:21:05.776Z,8.94
2023-03-16T18:23:36.895Z,8.90
2023-03-16T18:26:08.015Z,8.86
2023-03-16T18:28:36.475Z,8.83
2023-03-16T18:31:06.062Z,8.77
2023-03-16T18:33:36.424Z,8.76
2023-03-16T18:36:07.844Z,8.73
2023-03-16T18:38:39.360Z,8.69
2023-03-16T18:41:17.214Z,8.60
2023-03-16T18:43:45.955Z,8.54
2023-03-16T18:46:23.889Z,8.50
2023-03-16T18:48:53.581Z,8.45
2023-03-16T18:51:23.731Z,8.45
2023-03-16T18:53:52.672Z,8.44
2023-03-16T18:56:24.429Z,8.38
2023-03-16T18:58:53.671Z,8.32
2023-03-16T19:01:27.823Z,8.26
2023-03-16T19:03:58.181Z,8.18
2023-03-16T19:06:30.901Z,8.02
2023-03-16T19:09:05.252Z,7.93
2023-03-16T19:11:41.915Z,7.79
2023-03-16T19:14:16.539Z,7.70
2023-03-16T19:16:45.272Z,7.59
2023-03-16T19:19:15.196Z,7.55
2023-03-16T19:21:44.703Z,7.50
2023-03-16T19:24:23.485Z,7.45
2023-03-16T19:26:53.522Z,7.40
2023-03-16T19:29:29.205Z,7.38
2023-03-16T19:31:58.786Z,7.36
2023-03-16T19:34:27.729Z,7.26
2023-03-16T19:36:56.275Z,7.20
2023-03-16T19:39:25.577Z,7.20
2023-03-16T19:41:58.933Z,7.19
2023-03-16T19:44:29.373Z,7.20
2023-03-16T19:46:59.149Z,7.26
2023-03-16T19:49:29.378Z,7.34
2023-03-16T19:51:58.011Z,7.34
2023-03-16T19:54:29.319Z,7.35
2023-03-16T19:57:03.976Z,7.29
2023-03-16T19:59:35.756Z,7.18
2023-03-16T20:02:13.697Z,7.16
2023-03-16T20:04:42.321Z,7.09
2023-03-16T20:07:17.075Z,6.91
2023-03-16T20:09:46.027Z,6.78
2023-03-16T20:12:22.620Z,6.80
2023-03-16T20:14:52.333Z,6.85
2023-03-16T20:17:23.489Z,6.87
2023-03-16T20:19:53.030Z,6.93
2023-03-16T20:22:23.886Z,6.92
2023-03-16T20:24:54.441Z,6.81
2023-03-16T20:27:25.558Z,6.72
2023-03-16T20:29:54.058Z,6.63
2023-03-16T20:32:25.143Z,6.50
2023-03-16T20:34:54.084Z,6.38
2023-03-16T20:37:24.822Z,6.35
2023-03-16T20:39:54.404Z,6.33
2023-03-16T20:42:28.980Z,6.19
2023-03-16T20:44:57.545Z,6.17
2023-03-16T20:47:26.891Z,6.26
2023-03-16T20:49:58.296Z,6.34
2023-03-16T20:52:30.821Z,6.30
2023-03-16T20:54:59.715Z,6.25
2023-03-16T20:57:30.165Z,6.21
2023-03-16T20:59:59.997Z,6.18
2023-03-16T21:02:30.666Z,6.10
2023-03-16T21:05:01.072Z,6.04
2023-03-16T21:07:29.553Z,6.05
2023-03-16T21:09:58.358Z,5.98
2023-03-16T21:12:31.967Z,5.90
2023-03-16T21:15:09.733Z,5.79
2023-03-16T21:17:40.128Z,5.72
2023-03-16T21:20:17.081Z,5.67
2023-03-16T21:22:48.094Z,5.70
2023-03-16T21:25:20.673Z,5.75
2023-03-16T21:27:51.479Z,5.72
2023-03-16T21:30:26.841Z,5.74
2023-03-16T21:32:56.104Z,5.82
2023-03-16T21:35:32.118Z,5.88
2023-03-16T21:38:01.869Z,5.88
2023-03-16T21:40:30.588Z,5.92
2023-03-16T21:43:00.484Z,5.94
2023-03-16T21:45:29.310Z,5.85
2023-03-16T21:48:01.023Z,5.75
2023-03-16T21:50:33.502Z,5.71
2023-03-16T21:53:02.376Z,5.71
2023-03-16T21:55:31.793Z,5.78
2023-03-16T21:58:02.777Z,5.74
2023-03-16T22:00:33.205Z,5.70
2023-03-16T22:03:03.358Z,5.68
2023-03-16T22:05:37.623Z,5.59
2023-03-16T22:08:16.050Z,5.43
2023-03-16T22:10:44.485Z,5.45
2023-03-16T22:13:14.230Z,5.53
2023-03-16T22:15:43.647Z,5.56
2023-03-16T22:18:26.306Z,5.59
2023-03-16T22:20:55.880Z,5.62
2023-03-16T22:23:34.124Z,5.60
2023-03-16T22:26:03.231Z,5.59
2023-03-16T22:28:33.884Z,5.48
2023-03-16T22:31:04.873Z,5.35
2023-03-16T22:33:35.716Z,5.24
2023-03-16T22:36:08.383Z,5.09
2023-03-16T22:38:37.387Z,5.12
2023-03-16T22:41:06.713Z,5.19
2023-03-16T22:43:39.365Z,5.27
2023-03-16T22:46:07.775Z,5.20
2023-03-16T22:48:36.184Z,5.12
2023-03-16T22:51:05.874Z,5.00
2023-03-16T22:53:39.055Z,4.99
2023-03-16T22:56:10.182Z,4.91
2023-03-16T22:58:42.437Z,4.93
2023-03-16T23:01:17.293Z,4.96
2023-03-16T23:03:47.416Z,4.89
2023-03-16T23:06:18.279Z,4.73
2023-03-16T23:08:46.890Z,4.56
2023-03-16T23:11:20.190Z,4.46
2023-03-16T23:13:49.942Z,4.53
2023-03-16T23:16:22.111Z,4.62
2023-03-16T23:18:51.281Z,4.69
2023-03-16T23:21:22.726Z,4.76
2023-03-16T23:24:03.058Z,4.76
2023-03-16T23:26:33.167Z,4.83
2023-03-16T23:29:02.958Z,4.82
2023-03-16T23:31:31.548Z,4.85
2023-03-16T23:34:00.720Z,4.87
2023-03-16T23:36:29.103Z,4.83
2023-03-16T23:38:58.782Z,4.79
2023-03-16T23:41:27.515Z,4.82
2023-03-16T23:43:56.102Z,4.80
2023-03-16T23:46:29.244Z,4.75
2023-03-16T23:49:00.764Z,4.77
2023-03-16T23:51:32.109Z,4.79
2023-03-16T23:54:00.521Z,4.72
2023-03-16T23:56:28.943Z,4.71
2023-03-16T23:58:57.932Z,4.66
